createdAt,value
2023-04-03T00:01:16.074Z,95.00
2023-04-03T00:03:44.089Z,94.90
2023-04-03T00:06:13.331Z,94.90
2023-04-03T00:08:42.911Z,94.80
2023-04-03T00:11:11.592Z,94.80
2023-04-03T00:13:40.492Z,94.70
2023-04-03T00:16:09.188Z,94.70
2023-04-03T00:18:37.597Z,94.40
2023-04-03T00:21:06.423Z,94.60
2023-04-03T00:23:35.323Z,94.60
2023-04-03T00:26:04.676Z,94.60
2023-04-03T00:28:36.391Z,94.70
2023-04-03T00:31:04.749Z,94.80
2023-04-03T00:33:32.670Z,94.80
2023-04-03T00:36:00.707Z,94.70
2023-04-03T00:38:28.812Z,94.60
2023-04-03T00:40:56.803Z,94.80
2023-04-03T00:43:28.320Z,94.70
2023-04-03T00:45:57.924Z,95.10
2023-04-03T00:48:29.847Z,95.00
2023-04-03T00:50:58.395Z,94.90
2023-04-03T00:53:29.755Z,94.90
2023-04-03T00:55:59.138Z,94.80
2023-04-03T00:58:35.525Z,94.60
2023-04-03T01:01:08.721Z,94.80
2023-04-03T01:03:37.588Z,94.80
2023-04-03T01:06:06.040Z,94.90
2023-04-03T01:08:34.348Z,94.90
2023-04-03T01:11:02.292Z,94.90
2023-04-03T01:13:34.886Z,94.80
2023-04-03T01:16:04.045Z,94.80
2023-04-03T01:18:33.026Z,94.80
2023-04-03T01:21:33.686Z,94.60
2023-04-03T01:24:20.708Z,94.40
2023-04-03T01:26:48.876Z,94.50
2023-04-03T01:29:18.521Z,94.30
2023-04-03T01:31:54.043Z,94.30
2023-04-03T01:34:22.630Z,94.10
2023-04-03T01:36:51.572Z,93.70
2023-04-03T01:39:19.615Z,93.60
2023-04-03T01:41:47.912Z,93.70
2023-04-03T01:44:15.951Z,93.60
2023-04-03T01:46:44.254Z,93.40
2023-04-03T01:49:13.534Z,93.30
2023-04-03T01:51:41.617Z,93.40
2023-04-03T01:54:09.618Z,93.30
2023-04-03T01:56:38.152Z,93.30
2023-04-03T01:59:06.044Z,93.30
2023-04-03T02:01:34.234Z,93.20
2023-04-03T02:04:02.372Z,93.00
2023-04-03T02:06:31.787Z,93.40
2023-04-03T02:08:59.704Z,93.50
2023-04-03T02:11:27.708Z,93.40
2023-04-03T02:13:55.643Z,93.40
2023-04-03T02:16:23.783Z,93.30
2023-04-03T02:18:51.937Z,92.90
2023-04-03T02:21:19.959Z,93.00
2023-04-03T02:23:49.552Z,92.90
2023-04-03T02:26:18.845Z,92.90
2023-04-03T02:28:47.049Z,93.10
2023-04-03T02:31:15.447Z,93.10
2023-04-03T02:33:43.466Z,93.10
2023-04-03T02:36:11.677Z,93.20
2023-04-03T02:38:39.842Z,93.20
2023-04-03T02:41:11.196Z,93.10
2023-04-03T02:43:39.922Z,93.10
2023-04-03T02:46:09.029Z,93.20
2023-04-03T02:48:37.312Z,93.30
2023-04-03T02:51:05.622Z,93.30
2023-04-03T02:53:33.648Z,93.30
2023-04-03T02:56:01.601Z,93.10
2023-04-03T02:58:30.973Z,93.10
2023-04-03T03:00:58.989Z,92.80
2023-04-03T03:03:26.968Z,93.00
2023-04-03T03:06:03.852Z,93.00
2023-04-03T03:08:31.820Z,93.10
2023-04-03T03:11:00.292Z,92.80
2023-04-03T03:13:29.819Z,92.50
2023-04-03T03:15:58.097Z,92.20
2023-04-03T03:18:26.378Z,91.90
2023-04-03T03:20:54.727Z,92.00
2023-04-03T03:23:27.289Z,91.60
2023-04-03T03:25:57.537Z,91.80
2023-04-03T03:28:25.903Z,91.60
2023-04-03T03:30:55.373Z,91.60
2023-04-03T03:33:23.630Z,91.40
2023-04-03T03:35:52.097Z,90.90
2023-04-03T03:38:20.429Z,91.30
2023-04-03T03:40:49.666Z,91.20
2023-04-03T03:43:18.499Z,91.50
2023-04-03T03:45:47.248Z,91.60
2023-04-03T03:48:17.681Z,91.70
2023-04-03T03:50:45.806Z,91.80
2023-04-03T03:53:13.783Z,91.90
2023-04-03T03:55:41.750Z,92.00
2023-04-03T03:58:10.540Z,92.30
2023-04-03T04:00:39.040Z,92.20
2023-04-03T04:03:07.267Z,92.30
2023-04-03T04:05:37.434Z,92.30
2023-04-03T04:08:05.785Z,92.30
2023-04-03T04:10:34.005Z,92.40
2023-04-03T04:13:02.531Z,92.60
2023-04-03T04:15:32.480Z,92.60
2023-04-03T04:18:00.862Z,92.70
2023-04-03T04:20:29.044Z,92.80
2023-04-03T04:22:58.683Z,92.90
2023-04-03T04:25:26.649Z,92.90
2023-04-03T04:27:54.765Z,92.90
2023-04-03T04:30:22.738Z,92.90
2023-04-03T04:32:50.860Z,92.80
2023-04-03T04:35:19.200Z,92.90
2023-04-03T04:37:47.298Z,92.80
2023-04-03T04:40:16.956Z,92.90
2023-04-03T04:42:45.339Z,93.10
2023-04-03T04:45:13.291Z,93.00
2023-04-03T04:47:41.456Z,92.90
2023-04-03T04:50:10.336Z,93.20
2023-04-03T04:52:39.064Z,93.30
2023-04-03T04:55:07.897Z,93.30
2023-04-03T04:57:38.239Z,93.20
2023-04-03T05:00:08.049Z,93.20
2023-04-03T05:02:36.123Z,93.20
2023-04-03T05:05:05.309Z,93.20
2023-04-03T05:07:33.612Z,93.30
2023-04-03T05:10:01.585Z,93.30
2023-04-03T05:12:30.021Z,93.30
2023-04-03T05:14:59.453Z,93.60
2023-04-03T05:17:27.404Z,93.60
2023-04-03T05:19:55.523Z,93.90
2023-04-03T05:22:23.595Z,93.70
2023-04-03T05:24:52.353Z,93.70
2023-04-03T05:27:21.005Z,93.90
2023-04-03T05:29:49.575Z,93.80
2023-04-03T05:32:19.418Z,93.60
2023-04-03T05:34:47.416Z,93.60
2023-04-03T05:37:15.453Z,93.50
2023-04-03T05:39:43.886Z,93.40
2023-04-03T05:42:12.364Z,93.40
2023-04-03T05:44:41.745Z,93.40
2023-04-03T05:47:09.987Z,93.70
2023-04-03T05:49:41.681Z,93.70
2023-04-03T05:52:19.683Z,93.60
2023-04-03T05:54:49.127Z,93.40
2023-04-03T05:57:18.244Z,93.70
2023-04-03T05:59:47.456Z,93.90
2023-04-03T06:02:18.340Z,93.90
2023-04-03T06:04:48.747Z,94.00
2023-04-03T06:07:20.430Z,94.10
2023-04-03T06:09:48.455Z,94.00
2023-04-03T06:12:17.110Z,94.00
2023-04-03T06:14:47.019Z,93.90
2023-04-03T06:17:16.210Z,94.10
2023-04-03T06:19:44.651Z,94.00
2023-04-03T06:22:14.539Z,94.00
2023-04-03T06:24:42.566Z,93.80
2023-04-03T06:27:12.176Z,94.00
2023-04-03T06:29:40.823Z,93.70
2023-04-03T06:32:09.057Z,93.60
2023-04-03T06:34:36.987Z,93.60
2023-04-03T06:37:05.302Z,93.50
2023-04-03T06:39:34.637Z,93.70
2023-04-03T06:42:02.753Z,93.50
2023-04-03T06:44:30.790Z,93.40
2023-04-03T06:46:58.706Z,93.40
2023-04-03T06:49:27.132Z,93.20
2023-04-03T06:51:55.339Z,92.80
2023-04-03T06:54:23.741Z,92.70
2023-04-03T06:56:53.101Z,92.60
2023-04-03T06:59:22.305Z,92.50
2023-04-03T07:01:50.744Z,92.50
2023-04-03T07:04:21.676Z,92.60
2023-04-03T07:06:50.130Z,92.30
2023-04-03T07:09:18.729Z,92.10
2023-04-03T07:11:46.992Z,92.90
2023-04-03T07:14:16.508Z,91.80
2023-04-03T07:16:44.427Z,91.30
2023-04-03T07:19:12.736Z,91.60
2023-04-03T07:21:42.807Z,92.00
2023-04-03T07:24:13.214Z,91.40
2023-04-03T07:26:46.088Z,90.50
2023-04-03T07:29:15.145Z,91.30
2023-04-03T07:31:45.726Z,90.60
2023-04-03T07:34:14.924Z,90.90
2023-04-03T07:36:42.951Z,91.50
2023-04-03T07:39:12.161Z,91.60
2023-04-03T07:41:40.468Z,92.40
2023-04-03T07:44:10.753Z,91.60
2023-04-03T07:46:39.169Z,91.70
2023-04-03T07:49:09.029Z,91.10
2023-04-03T07:51:37.163Z,91.80
2023-04-03T07:54:05.981Z,90.80
2023-04-03T07:56:34.358Z,91.10
2023-04-03T07:59:02.740Z,91.00
2023-04-03T08:01:33.396Z,91.20
2023-04-03T08:04:02.212Z,91.10
2023-04-03T08:06:45.536Z,91.00
2023-04-03T08:09:15.296Z,90.40
2023-04-03T08:11:43.936Z,90.50
2023-04-03T08:14:16.459Z,89.80
2023-04-03T08:16:46.328Z,91.30
2023-04-03T08:19:25.624Z,90.80
2023-04-03T08:21:57.753Z,90.50
2023-04-03T08:24:26.255Z,90.10
2023-04-03T08:26:54.300Z,89.10
2023-04-03T08:29:23.121Z,90.40
2023-04-03T08:31:51.802Z,89.80
2023-04-03T08:34:20.642Z,90.00
2023-04-03T08:36:48.725Z,89.50
2023-04-03T08:39:18.225Z,90.80
2023-04-03T08:41:48.714Z,90.20
2023-04-03T08:44:24.072Z,90.10
2023-04-03T08:47:05.428Z,91.50
2023-04-03T08:49:37.551Z,90.20
2023-04-03T08:52:12.048Z,90.60
2023-04-03T08:54:51.661Z,90.80
2023-04-03T08:57:23.813Z,90.10
2023-04-03T08:59:53.167Z,90.60
2023-04-03T09:02:29.082Z,90.40
2023-04-03T09:04:57.820Z,90.30
2023-04-03T09:07:35.158Z,85.90
2023-04-03T09:10:05.325Z,87.90
2023-04-03T09:12:39.229Z,88.00
2023-04-03T09:15:20.094Z,87.50
2023-04-03T09:18:01.348Z,86.70
2023-04-03T09:20:40.723Z,87.20
2023-04-03T09:23:20.362Z,88.70
2023-04-03T09:25:51.094Z,85.00
2023-04-03T09:28:19.190Z,81.70
2023-04-03T09:30:47.405Z,85.50
2023-04-03T09:33:16.247Z,82.80
2023-04-03T09:35:48.766Z,85.60
2023-04-03T09:38:22.814Z,82.10
2023-04-03T09:41:05.549Z,80.20
2023-04-03T09:43:35.395Z,83.30
2023-04-03T09:46:27.598Z,85.00
2023-04-03T09:49:08.365Z,81.10
2023-04-03T09:51:38.034Z,83.50
2023-04-03T09:54:28.501Z,85.30
2023-04-03T09:57:08.725Z,83.90
2023-04-03T09:59:36.976Z,83.90
2023-04-03T10:02:18.468Z,82.80
2023-04-03T10:04:48.842Z,81.70
2023-04-03T10:07:30.856Z,83.40
2023-04-03T10:09:59.708Z,85.40
2023-04-03T10:12:29.212Z,85.90
2023-04-03T10:14:58.870Z,83.20
2023-04-03T10:17:39.946Z,82.10
2023-04-03T10:20:16.564Z,83.10
2023-04-03T10:23:02.029Z,85.10
2023-04-03T10:25:36.238Z,85.00
2023-04-03T10:28:12.194Z,85.20
2023-04-03T10:30:49.285Z,83.20
2023-04-03T10:33:36.471Z,83.60
2023-04-03T10:36:16.176Z,82.50
2023-04-03T10:38:52.822Z,80.70
2023-04-03T10:41:32.499Z,79.50
2023-04-03T10:44:12.638Z,80.50
2023-04-03T10:46:46.070Z,79.80
2023-04-03T10:49:30.675Z,80.10
2023-04-03T10:52:07.860Z,80.90
2023-04-03T10:54:41.464Z,76.20
2023-04-03T10:57:13.837Z,78.10
2023-04-03T10:59:49.544Z,81.50
2023-04-03T11:02:28.542Z,78.60
2023-04-03T11:05:03.859Z,80.20
2023-04-03T11:07:38.860Z,78.50
2023-04-03T11:10:15.996Z,78.90
2023-04-03T11:12:48.128Z,78.00
2023-04-03T11:15:19.640Z,79.10
2023-04-03T11:17:52.112Z,79.20
2023-04-03T11:20:28.398Z,79.50
2023-04-03T11:23:02.694Z,79.50
2023-04-03T11:25:33.267Z,79.10
2023-04-03T11:28:03.626Z,77.60
2023-04-03T11:30:41.305Z,75.80
2023-04-03T11:33:30.654Z,78.40
2023-04-03T11:36:07.321Z,79.60
2023-04-03T11:38:45.564Z,77.00
2023-04-03T11:41:15.584Z,75.00
2023-04-03T11:43:57.440Z,75.50
2023-04-03T11:46:57.061Z,75.50
2023-04-03T11:50:00.630Z,74.10
2023-04-03T11:53:04.317Z,71.30
2023-04-03T11:55:56.283Z,72.50
2023-04-03T11:58:26.036Z,68.90
2023-04-03T12:01:12.691Z,69.10
2023-04-03T12:04:11.692Z,72.60
2023-04-03T12:07:21.893Z,72.90
2023-04-03T12:10:01.438Z,73.90
2023-04-03T12:12:39.321Z,75.90
2023-04-03T12:15:39.457Z,75.60
2023-04-03T12:18:33.945Z,74.40
2023-04-03T12:21:04.268Z,72.90
2023-04-03T12:23:33.867Z,71.70
2023-04-03T12:26:22.597Z,70.40
2023-04-03T12:28:53.775Z,73.90
2023-04-03T12:31:24.962Z,74.80
2023-04-03T12:34:20.512Z,74.30
2023-04-03T12:37:02.497Z,72.90
2023-04-03T12:39:52.729Z,73.90
2023-04-03T12:42:40.090Z,74.00
2023-04-03T12:45:17.406Z,73.90
2023-04-03T12:47:46.727Z,72.80
2023-04-03T12:50:22.177Z,72.40
2023-04-03T12:52:57.283Z,75.20
2023-04-03T12:55:25.509Z,72.40
2023-04-03T12:57:53.466Z,71.00
2023-04-03T13:00:34.451Z,74.10
2023-04-03T13:03:05.051Z,73.20
2023-04-03T13:05:36.766Z,72.30
2023-04-03T13:08:11.722Z,69.50
2023-04-03T13:10:53.015Z,69.90
2023-04-03T13:13:21.909Z,72.40
2023-04-03T13:15:51.288Z,73.10
2023-04-03T13:18:32.059Z,73.00
2023-04-03T13:21:06.704Z,71.80
2023-04-03T13:23:40.822Z,73.50
2023-04-03T13:26:10.090Z,72.40
2023-04-03T13:28:39.016Z,72.60
2023-04-03T13:31:12.615Z,74.70
2023-04-03T13:33:40.996Z,73.00
2023-04-03T13:36:17.853Z,73.10
2023-04-03T13:38:47.253Z,73.90
2023-04-03T13:41:31.143Z,72.80
2023-04-03T13:44:16.250Z,72.30
2023-04-03T13:46:44.693Z,75.20
2023-04-03T13:49:24.261Z,75.40
2023-04-03T13:52:04.398Z,73.60
2023-04-03T13:54:38.760Z,75.60
2023-04-03T13:57:14.724Z,75.30
2023-04-03T13:59:44.048Z,76.80
2023-04-03T14:02:18.137Z,75.90
2023-04-03T14:04:59.294Z,77.80
2023-04-03T14:07:28.305Z,77.30
2023-04-03T14:09:58.095Z,75.30
2023-04-03T14:12:31.732Z,75.00
2023-04-03T14:15:00.848Z,77.40
2023-04-03T14:17:29.414Z,75.60
2023-04-03T14:19:59.780Z,76.10
2023-04-03T14:22:30.238Z,76.50
2023-04-03T14:25:01.159Z,76.40
2023-04-03T14:27:31.394Z,76.60
2023-04-03T14:30:01.009Z,74.90
2023-04-03T14:32:29.810Z,75.00
2023-04-03T14:34:59.016Z,77.30
2023-04-03T14:37:30.080Z,75.90
2023-04-03T14:40:01.590Z,75.20
2023-04-03T14:42:33.081Z,76.00
2023-04-03T14:45:02.178Z,76.30
2023-04-03T14:47:32.797Z,75.10
2023-04-03T14:50:01.815Z,74.70
2023-04-03T14:52:32.115Z,74.70
2023-04-03T14:55:02.314Z,74.60
2023-04-03T14:57:31.711Z,75.80
2023-04-03T15:00:01.687Z,76.30
2023-04-03T15:02:32.217Z,77.10
2023-04-03T15:05:01.634Z,75.30
2023-04-03T15:07:31.899Z,76.10
2023-04-03T15:10:20.004Z,77.80
2023-04-03T15:12:48.941Z,74.70
2023-04-03T15:15:18.404Z,75.90
2023-04-03T15:17:47.177Z,74.70
2023-04-03T15:20:17.666Z,75.70
2023-04-03T15:22:45.774Z,74.60
2023-04-03T15:25:15.172Z,75.60
2023-04-03T15:27:43.766Z,75.40
2023-04-03T15:30:16.820Z,76.10
2023-04-03T15:32:44.995Z,75.70
2023-04-03T15:35:13.179Z,76.00
2023-04-03T15:37:41.146Z,76.10
2023-04-03T15:40:10.525Z,74.60
2023-04-03T15:42:40.464Z,74.10
2023-04-03T15:45:09.915Z,74.30
2023-04-03T15:47:38.097Z,75.00
2023-04-03T15:50:08.783Z,73.80
2023-04-03T15:52:37.293Z,74.00
2023-04-03T15:55:05.569Z,73.50
2023-04-03T16:00:03.502Z,73.60
2023-04-03T16:02:31.520Z,75.90
2023-04-03T16:04:59.586Z,75.70
2023-04-03T16:07:27.659Z,74.90
2023-04-03T16:09:55.951Z,75.20
2023-04-03T16:12:24.025Z,73.90
2023-04-03T16:14:52.548Z,74.40
2023-04-03T16:17:21.993Z,73.70
2023-04-03T16:19:50.036Z,73.80
2023-04-03T16:22:18.284Z,71.80
2023-04-03T16:24:46.225Z,73.30
2023-04-03T16:27:14.138Z,73.80
2023-04-03T16:29:42.103Z,74.80
2023-04-03T16:32:10.739Z,73.60
2023-04-03T16:34:41.583Z,74.90
2023-04-03T16:37:10.312Z,73.00
2023-04-03T16:39:38.268Z,72.10
2023-04-03T16:42:06.261Z,72.30
2023-04-03T16:44:34.224Z,72.10
2023-04-03T16:47:02.355Z,71.70
2023-04-03T16:49:33.733Z,72.60
2023-04-03T16:52:04.892Z,73.10
2023-04-03T16:54:33.649Z,73.80
2023-04-03T16:57:01.612Z,74.10
2023-04-03T16:59:29.747Z,73.20
2023-04-03T17:01:57.764Z,73.40
2023-04-03T17:04:28.320Z,74.30
2023-04-03T17:06:57.197Z,74.10
2023-04-03T17:09:26.492Z,74.10
2023-04-03T17:11:54.593Z,75.00
2023-04-03T17:14:22.614Z,73.10
2023-04-03T17:16:51.631Z,74.60
2023-04-03T17:19:19.772Z,73.40
2023-04-03T17:21:48.020Z,74.90
2023-04-03T17:24:17.263Z,75.00
2023-04-03T17:26:47.200Z,74.20
2023-04-03T17:29:15.502Z,74.80
2023-04-03T17:31:43.672Z,75.60
2023-04-03T17:34:12.088Z,73.90
2023-04-03T17:36:41.585Z,74.80
2023-04-03T17:39:09.924Z,74.80
2023-04-03T17:41:38.112Z,73.50
2023-04-03T17:44:07.529Z,74.70
2023-04-03T17:46:36.176Z,72.20
2023-04-03T17:49:04.669Z,74.10
2023-04-03T17:51:36.966Z,72.60
2023-04-03T17:54:04.982Z,72.60
2023-04-03T17:56:33.193Z,73.20
2023-04-03T17:59:01.407Z,72.30
2023-04-03T18:01:32.425Z,73.50
2023-04-03T18:04:02.215Z,73.40
2023-04-03T18:06:33.524Z,74.20
2023-04-03T18:09:06.790Z,74.30
2023-04-03T18:11:34.939Z,74.40
2023-04-03T18:14:05.246Z,74.10
2023-04-03T18:16:34.855Z,74.80
2023-04-03T18:19:21.182Z,75.20
2023-04-03T18:21:53.558Z,73.60
2023-04-03T18:24:22.424Z,73.00
2023-04-03T18:26:54.589Z,73.30
2023-04-03T18:29:23.079Z,74.00
2023-04-03T18:31:54.962Z,73.60
2023-04-03T18:34:22.948Z,74.00
2023-04-03T18:36:52.286Z,74.10
2023-04-03T18:39:20.811Z,74.90
2023-04-03T18:41:49.822Z,74.90
2023-04-03T18:44:21.858Z,74.70
2023-04-03T18:46:49.962Z,75.40
2023-04-03T18:49:19.238Z,75.60
2023-04-03T18:51:47.988Z,75.30
2023-04-03T18:54:16.404Z,76.30
2023-04-03T18:56:45.076Z,75.60
2023-04-03T18:59:13.101Z,76.30
2023-04-03T19:01:41.424Z,75.90
2023-04-03T19:04:09.610Z,77.00
2023-04-03T19:06:39.123Z,76.20
2023-04-03T19:09:08.622Z,77.10
2023-04-03T19:11:36.843Z,78.20
2023-04-03T19:14:15.806Z,77.30
2023-04-03T19:16:45.613Z,76.70
2023-04-03T19:19:13.871Z,75.60
2023-04-03T19:21:43.323Z,76.30
2023-04-03T19:24:12.671Z,77.70
2023-04-03T19:26:41.182Z,77.40
2023-04-03T19:29:09.641Z,76.00
2023-04-03T19:31:38.659Z,76.40
2023-04-03T19:34:07.726Z,76.20
2023-04-03T19:36:37.146Z,76.10
2023-04-03T19:39:07.663Z,76.90
2023-04-03T19:41:37.954Z,75.50
2023-04-03T19:44:07.457Z,75.90
2023-04-03T19:46:36.575Z,76.60
2023-04-03T19:49:05.148Z,76.00
2023-04-03T19:51:33.191Z,76.20
2023-04-03T19:54:01.084Z,75.40
2023-04-03T19:56:30.601Z,74.90
2023-04-03T19:58:58.666Z,76.00
2023-04-03T20:01:28.045Z,75.70
2023-04-03T20:03:56.120Z,75.80
2023-04-03T20:06:24.047Z,75.80
2023-04-03T20:08:51.982Z,75.80
2023-04-03T20:11:20.108Z,76.80
2023-04-03T20:13:51.228Z,76.80
2023-04-03T20:16:22.218Z,77.20
2023-04-03T20:18:52.500Z,77.00
2023-04-03T20:21:20.539Z,77.20
2023-04-03T20:23:48.566Z,76.60
2023-04-03T20:26:23.411Z,77.20
2023-04-03T20:28:53.265Z,77.60
2023-04-03T20:31:22.219Z,77.90
2023-04-03T20:33:50.571Z,76.60
2023-04-03T20:36:19.876Z,77.20
2023-04-03T20:38:48.855Z,76.00
2023-04-03T20:41:17.511Z,76.40
2023-04-03T20:43:45.535Z,75.50
2023-04-03T20:46:19.579Z,75.60
2023-04-03T20:48:48.731Z,76.30
2023-04-03T20:51:19.027Z,76.40
2023-04-03T20:53:47.817Z,76.50
2023-04-03T20:56:16.200Z,76.90
2023-04-03T20:58:46.059Z,76.20
2023-04-03T21:01:18.327Z,75.20
2023-04-03T21:03:47.082Z,75.90
2023-04-03T21:06:52.397Z,76.40
2023-04-03T21:09:57.922Z,75.70
2023-04-03T21:13:03.970Z,75.30
2023-04-03T21:15:54.941Z,77.20
2023-04-03T21:18:53.104Z,76.60
2023-04-03T21:21:24.316Z,77.70
2023-04-03T21:23:53.867Z,75.70
2023-04-03T21:26:23.409Z,75.70
2023-04-03T21:28:52.857Z,75.00
2023-04-03T21:31:21.821Z,75.20
2023-04-03T21:33:51.905Z,75.10
2023-04-03T21:36:19.849Z,73.40
2023-04-03T21:38:51.392Z,73.90
2023-04-03T21:41:19.360Z,73.50
2023-04-03T21:43:48.033Z,74.00
2023-04-03T21:46:16.223Z,74.50
2023-04-03T21:48:46.184Z,73.40
2023-04-03T21:51:17.157Z,74.10
2023-04-03T21:53:46.500Z,73.80
2023-04-03T21:56:14.490Z,73.10
2023-04-03T21:58:42.425Z,74.90
2023-04-03T22:01:11.723Z,73.80
2023-04-03T22:03:40.442Z,74.70
2023-04-03T22:06:08.842Z,72.50
2023-04-03T22:08:38.308Z,73.20
2023-04-03T22:11:07.592Z,74.10
2023-04-03T22:13:36.277Z,73.90
2023-04-03T22:16:04.603Z,74.70
2023-04-03T22:18:33.173Z,74.80
2023-04-03T22:21:01.138Z,74.70
2023-04-03T22:23:29.129Z,74.40
2023-04-03T22:26:03.288Z,74.70
2023-04-03T22:28:32.424Z,75.90
2023-04-03T22:31:02.148Z,74.30
2023-04-03T22:33:30.281Z,73.60
2023-04-03T22:35:58.308Z,74.10
2023-04-03T22:38:26.635Z,74.40
2023-04-03T22:40:59.424Z,73.50
2023-04-03T22:43:29.842Z,75.00
2023-04-03T22:45:58.334Z,75.50
2023-04-03T22:48:27.020Z,75.80
2023-04-03T22:50:55.328Z,75.10
2023-04-03T22:53:23.759Z,76.60
2023-04-03T22:55:58.557Z,76.10
2023-04-03T22:58:28.785Z,77.00
2023-04-03T23:00:58.017Z,76.40
2023-04-03T23:03:25.961Z,76.70
2023-04-03T23:05:56.063Z,77.00
2023-04-03T23:08:24.261Z,77.10
2023-04-03T23:10:55.880Z,77.70
2023-04-03T23:13:23.980Z,77.40
2023-04-03T23:15:56.939Z,77.40
2023-04-03T23:18:25.528Z,76.40
2023-04-03T23:20:54.873Z,77.20
2023-04-03T23:23:23.903Z,78.10
2023-04-03T23:25:55.010Z,78.40
2023-04-03T23:28:23.282Z,78.40
2023-04-03T23:30:52.045Z,78.10
2023-04-03T23:33:21.397Z,78.70
2023-04-03T23:35:49.504Z,79.40
2023-04-03T23:38:17.659Z,78.50
2023-04-03T23:40:47.038Z,79.10
2023-04-03T23:43:15.179Z,78.90
2023-04-03T23:45:43.180Z,79.90
2023-04-03T23:48:11.193Z,80.00
2023-04-03T23:50:40.639Z,80.00
2023-04-03T23:53:09.295Z,79.70
2023-04-03T23:55:37.199Z,80.30
2023-04-03T23:58:05.209Z,80.70
